createdAt,value
2022-12-22T00:00:28.803Z,100.00
2022-12-22T00:02:01.254Z,100.00
2022-12-22T00:03:39.750Z,100.00
2022-12-22T00:05:11.217Z,100.00
2022-12-22T00:06:43.615Z,100.00
2022-12-22T00:08:09.598Z,100.00
2022-12-22T00:09:35.199Z,100.00
2022-12-22T00:11:03.594Z,100.00
2022-12-22T00:12:39.294Z,100.00
2022-12-22T00:14:10.995Z,100.00
2022-12-22T00:15:49.180Z,100.00
2022-12-22T00:17:21.736Z,100.00
2022-12-22T00:18:53.631Z,100.00
2022-12-22T00:20:21.200Z,100.00
2022-12-22T00:21:55.484Z,100.00
2022-12-22T00:23:18.614Z,100.00
2022-12-22T00:24:42.624Z,100.00
2022-12-22T00:26:08.671Z,100.00
2022-12-22T00:27:49.120Z,100.00
2022-12-22T00:29:17.906Z,100.00
2022-12-22T00:30:42.311Z,100.00
2022-12-22T00:32:06.289Z,100.00
2022-12-22T00:33:35.891Z,100.00
2022-12-22T00:35:02.409Z,100.00
2022-12-22T00:36:29.665Z,100.00
2022-12-22T00:37:56.401Z,100.00
2022-12-22T00:39:19.643Z,100.00
2022-12-22T00:40:47.154Z,100.00
2022-12-22T00:42:10.230Z,100.00
2022-12-22T00:43:34.705Z,100.00
2022-12-22T00:44:57.288Z,100.00
2022-12-22T00:46:23.836Z,100.00
2022-12-22T00:47:49.364Z,100.00
2022-12-22T00:49:19.697Z,100.00
2022-12-22T00:50:51.799Z,100.00
2022-12-22T00:52:18.242Z,100.00
2022-12-22T00:53:41.625Z,100.00
2022-12-22T00:55:08.507Z,100.00
2022-12-22T00:56:36.867Z,100.00
2022-12-22T00:58:01.930Z,100.00
2022-12-22T00:59:28.460Z,100.00
2022-12-22T01:00:52.219Z,100.00
2022-12-22T01:02:15.901Z,100.00
2022-12-22T01:03:38.902Z,100.00
2022-12-22T01:05:02.461Z,100.00
2022-12-22T01:06:29.533Z,100.00
2022-12-22T01:07:53.124Z,100.00
2022-12-22T01:09:18.695Z,100.00
2022-12-22T01:10:45.354Z,100.00
2022-12-22T01:12:11.228Z,100.00
2022-12-22T01:13:34.915Z,100.00
2022-12-22T01:14:56.889Z,100.00
2022-12-22T01:16:20.878Z,100.00
2022-12-22T01:17:43.309Z,100.00
2022-12-22T01:20:41.212Z,100.00
2022-12-22T01:22:03.787Z,100.00
2022-12-22T01:23:30.820Z,100.00
2022-12-22T01:24:53.318Z,100.00
2022-12-22T01:26:15.342Z,100.00
2022-12-22T01:27:38.845Z,100.00
2022-12-22T01:29:00.973Z,100.00
2022-12-22T01:30:24.291Z,100.00
2022-12-22T01:31:51.799Z,100.00
2022-12-22T01:33:17.927Z,100.00
2022-12-22T01:34:41.354Z,100.00
2022-12-22T01:36:03.661Z,100.00
2022-12-22T01:37:27.135Z,100.00
2022-12-22T01:38:49.708Z,100.00
2022-12-22T01:40:13.439Z,100.00
2022-12-22T01:41:43.140Z,100.00
2022-12-22T01:43:37.702Z,100.00
2022-12-22T01:44:49.880Z,100.00
2022-12-22T01:46:13.192Z,100.00
2022-12-22T01:47:52.431Z,100.00
2022-12-22T01:49:20.181Z,100.00
2022-12-22T01:50:57.872Z,100.00
2022-12-22T01:52:22.648Z,100.00
2022-12-22T01:53:48.970Z,100.00
2022-12-22T01:55:18.470Z,100.00
2022-12-22T01:56:43.392Z,100.00
2022-12-22T01:58:07.073Z,100.00
2022-12-22T01:59:30.774Z,100.00
2022-12-22T02:00:54.411Z,100.00
2022-12-22T02:02:19.384Z,100.00
2022-12-22T02:03:44.484Z,100.00
2022-12-22T02:05:08.707Z,100.00
2022-12-22T02:06:45.678Z,100.00
2022-12-22T02:09:00.754Z,100.00
2022-12-22T02:10:59.241Z,100.00
2022-12-22T02:12:47.755Z,100.00
2022-12-22T02:15:12.004Z,100.00
2022-12-22T02:17:05.214Z,100.00
2022-12-22T02:19:00.515Z,100.00
2022-12-22T02:20:57.675Z,100.00
2022-12-22T02:23:04.518Z,100.00
2022-12-22T02:24:56.525Z,100.00
2022-12-22T02:26:43.446Z,100.00
2022-12-22T02:28:14.213Z,100.00
2022-12-22T02:29:51.029Z,100.00
2022-12-22T02:31:15.094Z,100.00
2022-12-22T02:32:52.177Z,100.00
2022-12-22T02:34:15.049Z,100.00
2022-12-22T02:35:39.384Z,100.00
2022-12-22T02:38:04.028Z,100.00
2022-12-22T02:40:24.466Z,100.00
2022-12-22T02:42:29.163Z,100.00
2022-12-22T02:44:27.623Z,100.00
2022-12-22T02:46:15.512Z,100.00
2022-12-22T02:48:08.795Z,100.00
2022-12-22T02:49:59.065Z,100.00
2022-12-22T02:51:38.810Z,100.00
2022-12-22T02:53:04.455Z,100.00
2022-12-22T02:54:29.248Z,100.00
2022-12-22T02:55:54.097Z,100.00
2022-12-22T02:57:17.125Z,100.00
2022-12-22T02:58:40.991Z,100.00
2022-12-22T03:00:04.403Z,100.00
2022-12-22T03:01:28.513Z,100.00
2022-12-22T03:02:52.717Z,100.00
2022-12-22T03:04:14.921Z,100.00
2022-12-22T03:05:37.240Z,100.00
2022-12-22T03:07:00.884Z,100.00
2022-12-22T03:08:24.694Z,100.00
2022-12-22T03:09:46.807Z,100.00
2022-12-22T03:11:09.034Z,100.00
2022-12-22T03:12:31.533Z,100.00
2022-12-22T03:13:53.938Z,100.00
2022-12-22T03:15:16.012Z,100.00
2022-12-22T03:16:38.843Z,100.00
2022-12-22T03:18:00.990Z,100.00
2022-12-22T03:19:23.470Z,100.00
2022-12-22T03:20:45.951Z,100.00
2022-12-22T03:22:08.002Z,100.00
2022-12-22T03:23:30.249Z,100.00
2022-12-22T03:24:52.982Z,100.00
2022-12-22T03:25:56.681Z,100.00
2022-12-22T03:27:00.743Z,100.00
2022-12-22T03:28:08.524Z,100.00
2022-12-22T03:29:12.944Z,100.00
2022-12-22T03:30:16.759Z,100.00
2022-12-22T03:31:23.765Z,100.00
2022-12-22T03:32:28.795Z,100.00
2022-12-22T03:33:34.674Z,100.00
2022-12-22T03:34:39.644Z,100.00
2022-12-22T03:35:45.951Z,100.00
2022-12-22T03:36:49.795Z,100.00
2022-12-22T03:37:53.578Z,100.00
2022-12-22T03:38:57.700Z,100.00
2022-12-22T03:40:01.939Z,100.00
2022-12-22T03:41:07.852Z,100.00
2022-12-22T03:42:31.480Z,100.00
2022-12-22T03:43:54.429Z,100.00
2022-12-22T03:45:18.197Z,100.00
2022-12-22T03:46:32.003Z,100.00
2022-12-22T03:47:37.695Z,100.00
2022-12-22T03:48:42.792Z,100.00
2022-12-22T03:49:46.499Z,100.00
2022-12-22T03:50:58.253Z,100.00
2022-12-22T03:52:02.503Z,100.00
2022-12-22T03:53:06.804Z,100.00
2022-12-22T03:54:14.354Z,100.00
2022-12-22T03:55:17.984Z,100.00
2022-12-22T03:56:21.578Z,100.00
2022-12-22T03:57:25.544Z,100.00
2022-12-22T03:58:32.175Z,100.00
2022-12-22T03:59:40.846Z,100.00
2022-12-22T04:01:08.416Z,100.00
2022-12-22T04:02:20.470Z,100.00
2022-12-22T04:03:24.653Z,100.00
2022-12-22T04:04:29.162Z,100.00
2022-12-22T04:05:38.123Z,100.00
2022-12-22T04:06:45.050Z,100.00
2022-12-22T04:07:49.295Z,100.00
2022-12-22T04:08:53.811Z,100.00
2022-12-22T04:10:18.883Z,100.00
2022-12-22T04:11:44.592Z,100.00
2022-12-22T04:12:55.697Z,100.00
2022-12-22T04:14:09.895Z,100.00
2022-12-22T04:15:16.441Z,100.00
2022-12-22T04:16:22.147Z,100.00
2022-12-22T04:17:26.575Z,100.00
2022-12-22T04:18:30.807Z,100.00
2022-12-22T04:19:35.042Z,100.00
2022-12-22T04:20:39.095Z,100.00
2022-12-22T04:21:44.185Z,100.00
2022-12-22T04:22:48.877Z,100.00
2022-12-22T04:23:55.233Z,100.00
2022-12-22T04:24:59.595Z,100.00
2022-12-22T04:26:04.669Z,100.00
2022-12-22T04:27:09.091Z,100.00
2022-12-22T04:28:14.679Z,100.00
2022-12-22T04:29:19.580Z,100.00
2022-12-22T04:30:23.403Z,100.00
2022-12-22T04:31:27.675Z,100.00
2022-12-22T04:32:31.404Z,100.00
2022-12-22T04:33:35.264Z,100.00
2022-12-22T04:34:38.888Z,100.00
2022-12-22T04:35:43.062Z,100.00
2022-12-22T04:36:46.866Z,100.00
2022-12-22T04:37:50.765Z,100.00
2022-12-22T04:38:55.655Z,100.00
2022-12-22T04:39:59.438Z,100.00
2022-12-22T04:41:08.864Z,100.00
2022-12-22T04:42:15.839Z,100.00
2022-12-22T04:43:32.168Z,100.00
2022-12-22T04:44:35.862Z,100.00
2022-12-22T04:45:46.032Z,100.00
2022-12-22T04:46:52.423Z,100.00
2022-12-22T04:47:56.424Z,100.00
2022-12-22T04:49:00.688Z,100.00
2022-12-22T04:50:11.911Z,100.00
2022-12-22T04:51:18.153Z,100.00
2022-12-22T04:52:27.989Z,100.00
2022-12-22T04:53:32.909Z,100.00
2022-12-22T04:54:37.221Z,100.00
2022-12-22T04:55:51.003Z,100.00
2022-12-22T04:56:57.587Z,100.00
2022-12-22T04:58:01.852Z,100.00
2022-12-22T04:59:05.932Z,100.00
2022-12-22T05:00:13.853Z,100.00
2022-12-22T05:01:20.587Z,100.00
2022-12-22T05:02:25.188Z,100.00
2022-12-22T05:03:31.426Z,100.00
2022-12-22T05:04:36.103Z,100.00
2022-12-22T05:05:40.010Z,100.00
2022-12-22T05:06:44.178Z,100.00
2022-12-22T05:07:47.864Z,100.00
2022-12-22T05:08:53.405Z,100.00
2022-12-22T05:09:58.249Z,100.00
2022-12-22T05:11:04.171Z,100.00
2022-12-22T05:12:29.767Z,100.00
2022-12-22T05:13:34.033Z,100.00
2022-12-22T05:14:37.706Z,100.00
2022-12-22T05:15:41.258Z,100.00
2022-12-22T05:16:44.872Z,100.00
2022-12-22T05:17:48.515Z,100.00
2022-12-22T05:18:52.162Z,100.00
2022-12-22T05:19:56.107Z,100.00
2022-12-22T05:21:03.076Z,100.00
2022-12-22T05:22:14.409Z,100.00
2022-12-22T05:23:23.480Z,100.00
2022-12-22T05:24:28.233Z,100.00
2022-12-22T05:25:35.601Z,100.00
2022-12-22T05:26:42.981Z,100.00
2022-12-22T05:27:50.132Z,100.00
2022-12-22T05:28:55.397Z,100.00
2022-12-22T05:29:59.590Z,100.00
2022-12-22T05:31:16.760Z,100.00
2022-12-22T05:32:21.487Z,100.00
2022-12-22T05:33:26.352Z,100.00
2022-12-22T05:34:34.295Z,100.00
2022-12-22T05:35:39.474Z,100.00
2022-12-22T05:36:46.439Z,100.00
2022-12-22T05:37:50.367Z,100.00
2022-12-22T05:38:55.370Z,100.00
2022-12-22T05:39:59.527Z,100.00
2022-12-22T05:41:04.669Z,100.00
2022-12-22T05:42:10.162Z,100.00
2022-12-22T05:43:18.442Z,100.00
2022-12-22T05:44:23.081Z,100.00
2022-12-22T05:45:27.752Z,100.00
2022-12-22T05:46:33.114Z,100.00
2022-12-22T05:47:37.924Z,100.00
2022-12-22T05:48:50.363Z,100.00
2022-12-22T05:49:54.419Z,100.00
2022-12-22T05:50:58.277Z,100.00
2022-12-22T05:52:02.062Z,100.00
2022-12-22T05:53:12.057Z,100.00
2022-12-22T05:54:18.564Z,100.00
2022-12-22T05:55:26.423Z,100.00
2022-12-22T05:56:31.238Z,100.00
2022-12-22T05:57:37.571Z,100.00
2022-12-22T05:58:42.568Z,100.00
2022-12-22T05:59:52.454Z,100.00
2022-12-22T06:01:01.613Z,100.00
2022-12-22T06:02:27.863Z,100.00
2022-12-22T06:05:05.464Z,100.00
2022-12-22T06:06:17.990Z,100.00
2022-12-22T06:07:30.702Z,100.00
2022-12-22T06:08:34.611Z,100.00
2022-12-22T06:09:43.369Z,100.00
2022-12-22T06:10:47.724Z,100.00
2022-12-22T06:12:17.134Z,100.00
2022-12-22T06:13:29.296Z,100.00
2022-12-22T06:14:34.101Z,100.00
2022-12-22T06:15:41.559Z,100.00
2022-12-22T06:16:46.113Z,100.00
2022-12-22T06:17:53.100Z,100.00
2022-12-22T06:18:56.922Z,100.00
2022-12-22T06:20:06.845Z,100.00
2022-12-22T06:21:10.677Z,100.00
2022-12-22T06:22:18.324Z,100.00
2022-12-22T06:23:23.163Z,100.00
2022-12-22T06:24:27.665Z,100.00
2022-12-22T06:25:35.659Z,100.00
2022-12-22T06:26:41.239Z,100.00
2022-12-22T06:27:46.235Z,100.00
2022-12-22T06:28:49.838Z,100.00
2022-12-22T06:30:00.088Z,100.00
2022-12-22T06:31:06.951Z,100.00
2022-12-22T06:32:15.004Z,100.00
2022-12-22T06:33:23.486Z,100.00
2022-12-22T06:34:30.578Z,100.00
2022-12-22T06:35:34.214Z,100.00
2022-12-22T06:36:39.333Z,100.00
2022-12-22T06:37:43.050Z,100.00
2022-12-22T06:38:49.635Z,100.00
2022-12-22T06:39:56.321Z,100.00
2022-12-22T06:41:02.270Z,100.00
2022-12-22T06:42:33.784Z,100.00
2022-12-22T06:43:38.060Z,100.00
2022-12-22T06:44:44.618Z,100.00
2022-12-22T06:45:48.337Z,100.00
2022-12-22T06:46:52.959Z,100.00
2022-12-22T06:48:03.440Z,100.00
2022-12-22T06:49:08.564Z,100.00
2022-12-22T06:50:13.900Z,100.00
2022-12-22T06:51:20.480Z,100.00
2022-12-22T06:52:25.260Z,100.00
2022-12-22T06:53:29.166Z,100.00
2022-12-22T06:54:33.670Z,100.00
2022-12-22T06:55:38.463Z,100.00
2022-12-22T06:56:45.877Z,100.00
2022-12-22T06:57:53.184Z,100.00
2022-12-22T06:59:00.470Z,100.00
2022-12-22T07:00:13.154Z,100.00
2022-12-22T07:01:21.589Z,100.00
2022-12-22T07:02:26.677Z,100.00
2022-12-22T07:03:31.921Z,100.00
2022-12-22T07:04:36.225Z,100.00
2022-12-22T07:05:40.998Z,100.00
2022-12-22T07:06:46.141Z,100.00
2022-12-22T07:07:51.438Z,100.00
2022-12-22T07:08:55.799Z,100.00
2022-12-22T07:10:03.640Z,100.00
2022-12-22T07:11:18.074Z,100.00
2022-12-22T07:12:27.439Z,100.00
2022-12-22T07:13:35.759Z,100.00
2022-12-22T07:14:39.598Z,100.00
2022-12-22T07:15:44.786Z,100.00
2022-12-22T07:16:49.338Z,100.00
2022-12-22T07:17:54.426Z,100.00
2022-12-22T07:19:00.554Z,100.00
2022-12-22T07:20:09.093Z,100.00
2022-12-22T07:21:15.087Z,100.00
2022-12-22T07:22:21.634Z,100.00
2022-12-22T07:23:28.725Z,100.00
2022-12-22T07:24:38.554Z,100.00
2022-12-22T07:25:42.866Z,100.00
2022-12-22T07:26:58.298Z,100.00
2022-12-22T07:28:09.966Z,100.00
2022-12-22T07:29:15.340Z,100.00
2022-12-22T07:30:19.032Z,100.00
2022-12-22T07:31:32.505Z,100.00
2022-12-22T07:32:39.211Z,100.00
2022-12-22T07:33:46.848Z,100.00
2022-12-22T07:35:00.092Z,100.00
2022-12-22T07:36:17.488Z,100.00
2022-12-22T07:37:22.238Z,100.00
2022-12-22T07:38:26.707Z,100.00
2022-12-22T07:39:30.582Z,100.00
2022-12-22T07:40:49.326Z,100.00
2022-12-22T07:42:14.878Z,100.00
2022-12-22T07:43:24.228Z,100.00
2022-12-22T07:44:31.250Z,100.00
2022-12-22T07:45:39.865Z,100.00
2022-12-22T07:46:44.230Z,100.00
2022-12-22T07:47:48.786Z,100.00
2022-12-22T07:49:18.381Z,100.00
2022-12-22T07:50:29.828Z,100.00
2022-12-22T07:51:42.413Z,100.00
2022-12-22T07:52:46.764Z,100.00
2022-12-22T07:53:57.951Z,100.00
2022-12-22T07:55:01.983Z,100.00
2022-12-22T07:56:11.484Z,100.00
2022-12-22T07:57:19.219Z,100.00
2022-12-22T07:58:25.270Z,100.00
2022-12-22T07:59:31.215Z,100.00
2022-12-22T08:00:36.522Z,100.00
2022-12-22T08:01:43.225Z,100.00
2022-12-22T08:03:01.789Z,100.00
2022-12-22T08:04:05.872Z,100.00
2022-12-22T08:05:10.714Z,100.00
2022-12-22T08:06:14.757Z,100.00
2022-12-22T08:07:20.463Z,100.00
2022-12-22T08:08:25.641Z,100.00
2022-12-22T08:09:31.291Z,100.00
2022-12-22T08:10:35.827Z,99.98
2022-12-22T08:11:39.390Z,99.80
2022-12-22T08:12:49.055Z,99.41
2022-12-22T08:14:00.843Z,99.58
2022-12-22T08:15:12.438Z,99.67
2022-12-22T08:16:18.244Z,99.97
2022-12-22T08:17:22.034Z,100.00
2022-12-22T08:18:27.596Z,100.00
2022-12-22T08:19:33.007Z,100.00
2022-12-22T08:20:37.581Z,99.76
2022-12-22T08:21:48.527Z,99.60
2022-12-22T08:23:01.931Z,99.49
2022-12-22T08:24:12.737Z,99.41
2022-12-22T08:25:16.896Z,99.87
2022-12-22T08:26:27.540Z,99.78
2022-12-22T08:27:45.271Z,99.52
2022-12-22T08:29:24.369Z,99.10
2022-12-22T08:30:28.382Z,99.03
2022-12-22T08:31:39.511Z,98.65
2022-12-22T08:32:48.848Z,98.44
2022-12-22T08:33:54.547Z,97.66
2022-12-22T08:34:59.149Z,98.24
2022-12-22T08:36:08.343Z,97.51
2022-12-22T08:37:20.054Z,97.56
2022-12-22T08:38:24.811Z,97.07
2022-12-22T08:39:35.261Z,97.08
2022-12-22T08:40:39.337Z,96.64
2022-12-22T08:41:53.383Z,96.80
2022-12-22T08:43:11.638Z,96.68
2022-12-22T08:44:25.757Z,97.38
2022-12-22T08:45:30.910Z,96.94
2022-12-22T08:46:37.000Z,96.70
2022-12-22T08:47:41.518Z,96.73
2022-12-22T08:48:49.008Z,96.32
2022-12-22T08:49:53.531Z,96.36
2022-12-22T08:51:02.170Z,96.30
2022-12-22T08:52:08.876Z,96.32
2022-12-22T08:53:45.283Z,95.75
2022-12-22T08:54:43.296Z,95.31
2022-12-22T08:56:13.536Z,94.94
2022-12-22T08:57:20.044Z,94.73
2022-12-22T08:58:26.949Z,95.19
2022-12-22T08:59:35.581Z,95.17
2022-12-22T09:00:40.164Z,95.67
2022-12-22T09:01:51.184Z,95.42
2022-12-22T09:02:58.931Z,95.16
2022-12-22T09:04:10.913Z,95.70
2022-12-22T09:05:41.652Z,95.62
2022-12-22T09:06:50.540Z,95.28
2022-12-22T09:07:54.311Z,95.22
2022-12-22T09:09:06.763Z,95.11
2022-12-22T09:10:11.515Z,95.08
2022-12-22T09:11:31.331Z,95.04
2022-12-22T09:12:37.101Z,94.98
2022-12-22T09:13:41.077Z,95.06
2022-12-22T09:14:45.362Z,95.54
2022-12-22T09:15:48.973Z,96.12
2022-12-22T09:16:53.881Z,95.41
2022-12-22T09:17:57.481Z,95.63
2022-12-22T09:19:15.348Z,95.30
2022-12-22T09:20:22.928Z,95.15
2022-12-22T09:21:31.029Z,95.54
2022-12-22T09:22:38.764Z,95.67
2022-12-22T09:23:51.615Z,95.86
2022-12-22T09:24:57.456Z,95.78
2022-12-22T09:26:07.780Z,95.80
2022-12-22T09:27:11.549Z,95.92
2022-12-22T09:28:23.428Z,95.79
2022-12-22T09:29:33.064Z,95.30
2022-12-22T09:30:39.263Z,95.66
2022-12-22T09:31:44.561Z,95.67
2022-12-22T09:32:48.690Z,95.84
2022-12-22T09:33:54.199Z,96.04
2022-12-22T09:35:02.294Z,96.30
2022-12-22T09:36:14.628Z,96.10
2022-12-22T09:37:22.810Z,95.60
2022-12-22T09:38:32.826Z,95.66
2022-12-22T09:39:39.133Z,95.19
2022-12-22T09:40:54.316Z,95.28
2022-12-22T09:42:02.853Z,94.79
2022-12-22T09:43:19.869Z,95.16
2022-12-22T09:44:46.567Z,94.65
2022-12-22T09:45:52.207Z,95.11
2022-12-22T09:47:13.801Z,95.05
2022-12-22T09:48:22.033Z,94.48
2022-12-22T09:49:29.405Z,94.55
2022-12-22T09:50:35.263Z,94.56
2022-12-22T09:51:56.962Z,94.30
2022-12-22T09:53:07.647Z,94.38
2022-12-22T09:54:14.479Z,94.65
2022-12-22T09:55:27.766Z,94.67
2022-12-22T09:56:33.940Z,94.41
2022-12-22T09:57:38.157Z,94.36
2022-12-22T09:58:45.242Z,93.97
2022-12-22T09:59:51.175Z,93.67
2022-12-22T10:01:09.106Z,92.89
2022-12-22T10:03:20.345Z,92.40
2022-12-22T10:04:49.694Z,92.65
2022-12-22T10:06:20.099Z,92.64
2022-12-22T10:07:42.908Z,92.56
2022-12-22T10:08:47.409Z,92.92
2022-12-22T10:09:53.772Z,92.68
2022-12-22T10:10:58.957Z,92.74
2022-12-22T10:12:20.318Z,92.39
2022-12-22T10:13:28.104Z,92.34
2022-12-22T10:14:47.443Z,92.05
2022-12-22T10:15:53.542Z,92.04
2022-12-22T10:17:42.386Z,91.81
2022-12-22T10:19:12.355Z,91.76
2022-12-22T10:20:26.512Z,92.44
2022-12-22T10:21:31.519Z,91.94
2022-12-22T10:23:01.253Z,91.90
2022-12-22T10:24:37.289Z,91.07
2022-12-22T10:26:27.881Z,90.97
2022-12-22T10:27:44.237Z,90.88
2022-12-22T10:29:02.722Z,90.72
2022-12-22T10:30:29.524Z,90.77
2022-12-22T10:31:40.099Z,91.24
2022-12-22T10:33:17.270Z,91.76
2022-12-22T10:34:32.975Z,91.75
2022-12-22T10:35:46.060Z,91.44
2022-12-22T10:36:57.180Z,90.71
2022-12-22T10:38:22.218Z,90.97
2022-12-22T10:39:35.787Z,90.86
2022-12-22T10:40:48.341Z,90.25
2022-12-22T10:41:57.096Z,90.21
2022-12-22T10:43:02.684Z,89.74
2022-12-22T10:44:23.993Z,89.03
2022-12-22T10:45:49.194Z,89.54
2022-12-22T10:47:17.372Z,90.16
2022-12-22T10:48:36.414Z,90.75
2022-12-22T10:49:46.299Z,90.44
2022-12-22T10:50:52.215Z,90.30
2022-12-22T10:52:25.450Z,89.86
2022-12-22T10:54:34.042Z,89.73
2022-12-22T10:55:39.443Z,89.46
2022-12-22T10:56:45.253Z,89.45
2022-12-22T10:57:57.034Z,89.79
2022-12-22T10:59:22.782Z,90.17
2022-12-22T11:00:32.817Z,89.97
2022-12-22T11:01:39.258Z,90.38
2022-12-22T11:02:58.881Z,89.83
2022-12-22T11:04:35.607Z,90.31
2022-12-22T11:05:40.142Z,90.45
2022-12-22T11:06:45.489Z,90.21
2022-12-22T11:07:50.854Z,90.39
2022-12-22T11:09:31.300Z,90.25
2022-12-22T11:10:48.015Z,90.36
2022-12-22T11:12:39.768Z,89.55
2022-12-22T11:14:30.909Z,89.14
2022-12-22T11:15:51.573Z,89.52
2022-12-22T11:17:20.813Z,89.28
2022-12-22T11:19:17.412Z,89.54
2022-12-22T11:20:46.069Z,89.47
2022-12-22T11:22:24.037Z,90.14
2022-12-22T11:24:09.065Z,90.40
2022-12-22T11:25:56.782Z,90.46
2022-12-22T11:27:42.276Z,90.31
2022-12-22T11:29:27.387Z,89.93
2022-12-22T11:30:50.565Z,89.94
2022-12-22T11:32:35.008Z,90.07
2022-12-22T11:34:27.749Z,90.37
2022-12-22T11:36:11.084Z,90.46
2022-12-22T11:37:26.320Z,90.51
2022-12-22T11:38:45.858Z,90.36
2022-12-22T11:40:24.325Z,90.63
2022-12-22T11:42:36.929Z,90.33
2022-12-22T11:44:46.772Z,90.23
2022-12-22T11:46:03.265Z,90.45
2022-12-22T11:47:33.356Z,90.17
2022-12-22T11:48:54.929Z,89.99
2022-12-22T11:50:50.579Z,89.91
2022-12-22T11:51:42.363Z,89.90
2022-12-22T11:52:57.146Z,89.46
2022-12-22T11:54:49.923Z,89.14
2022-12-22T11:56:19.687Z,89.14
2022-12-22T11:57:53.901Z,89.07
2022-12-22T11:59:45.979Z,89.16
2022-12-22T12:01:26.610Z,89.51
2022-12-22T12:03:18.961Z,89.49
2022-12-22T12:05:02.936Z,89.54
2022-12-22T12:06:38.392Z,89.45
2022-12-22T12:07:51.203Z,89.79
2022-12-22T12:09:17.762Z,89.65
2022-12-22T12:10:45.392Z,89.61
2022-12-22T12:12:05.546Z,89.29
2022-12-22T12:13:38.708Z,88.48
2022-12-22T12:15:54.070Z,88.46
2022-12-22T12:17:36.389Z,88.70
2022-12-22T12:19:23.138Z,88.69
2022-12-22T12:21:06.828Z,88.97
2022-12-22T12:22:46.126Z,88.97
2022-12-22T12:24:01.873Z,89.05
2022-12-22T12:25:38.074Z,89.13
2022-12-22T12:27:25.521Z,89.03
2022-12-22T12:29:16.377Z,88.78
2022-12-22T12:30:39.855Z,88.89
2022-12-22T12:32:24.736Z,88.87
2022-12-22T12:33:52.388Z,89.03
2022-12-22T12:35:36.003Z,88.57
2022-12-22T12:36:52.559Z,88.60
2022-12-22T12:39:05.837Z,89.03
2022-12-22T12:40:16.921Z,88.72
2022-12-22T12:41:58.739Z,89.00
2022-12-22T12:43:11.012Z,88.97
2022-12-22T12:44:26.641Z,88.68
2022-12-22T12:45:45.449Z,88.57
2022-12-22T12:47:04.514Z,88.70
2022-12-22T12:48:25.734Z,88.55
2022-12-22T12:49:37.472Z,88.46
2022-12-22T12:50:41.456Z,88.61
2022-12-22T12:51:49.956Z,88.72
2022-12-22T12:52:53.648Z,88.57
2022-12-22T12:54:35.206Z,88.54
2022-12-22T12:55:38.818Z,88.64
2022-12-22T12:57:22.354Z,88.38
2022-12-22T12:58:38.826Z,88.79
2022-12-22T12:59:49.773Z,88.70
2022-12-22T13:00:58.777Z,88.45
2022-12-22T13:02:30.612Z,88.31
2022-12-22T13:05:28.303Z,88.18
2022-12-22T13:06:51.072Z,88.31
2022-12-22T13:08:20.207Z,88.58
2022-12-22T13:09:50.090Z,88.27
2022-12-22T13:10:54.645Z,88.20
2022-12-22T13:12:41.331Z,88.75
2022-12-22T13:13:49.131Z,89.16
2022-12-22T13:15:01.529Z,89.71
2022-12-22T13:16:05.197Z,89.17
2022-12-22T13:17:42.270Z,88.94
2022-12-22T13:18:51.522Z,89.83
2022-12-22T13:19:56.731Z,90.17
2022-12-22T13:22:55.327Z,89.67
2022-12-22T13:24:32.527Z,89.06
2022-12-22T13:25:51.472Z,88.87
2022-12-22T13:27:04.792Z,89.06
2022-12-22T13:28:18.418Z,88.66
2022-12-22T13:29:44.855Z,88.09
2022-12-22T13:31:41.740Z,88.33
2022-12-22T13:32:50.675Z,88.38
2022-12-22T13:34:26.755Z,88.13
2022-12-22T13:35:46.658Z,88.45
2022-12-22T13:36:54.816Z,88.79
2022-12-22T13:37:59.097Z,88.30
2022-12-22T13:39:15.137Z,88.18
2022-12-22T13:40:24.543Z,88.49
2022-12-22T13:41:34.604Z,88.82
2022-12-22T13:42:53.651Z,88.89
2022-12-22T13:44:07.061Z,88.54
2022-12-22T13:45:40.050Z,88.88
2022-12-22T13:46:49.478Z,88.69
2022-12-22T13:47:53.816Z,88.27
2022-12-22T13:49:05.013Z,87.92
2022-12-22T13:52:05.763Z,87.98
2022-12-22T13:53:49.454Z,88.17
2022-12-22T13:54:46.016Z,88.20
2022-12-22T13:55:51.884Z,88.36
2022-12-22T13:57:00.911Z,88.15
2022-12-22T13:58:29.660Z,88.61
2022-12-22T13:59:43.549Z,88.21
2022-12-22T14:01:20.062Z,88.15
2022-12-22T14:02:24.889Z,88.25
2022-12-22T14:03:58.344Z,88.61
2022-12-22T14:05:17.505Z,88.05
2022-12-22T14:06:41.214Z,88.47
2022-12-22T14:08:07.844Z,88.57
2022-12-22T14:09:23.296Z,88.21
2022-12-22T14:10:52.540Z,88.81
2022-12-22T14:12:45.517Z,88.56
2022-12-22T14:13:49.624Z,88.52
2022-12-22T14:14:58.059Z,88.56
2022-12-22T14:16:05.786Z,88.89
2022-12-22T14:17:32.757Z,89.26
2022-12-22T14:18:41.019Z,89.27
2022-12-22T14:19:50.275Z,89.17
2022-12-22T14:20:57.106Z,89.23
2022-12-22T14:22:12.207Z,89.07
2022-12-22T14:23:29.805Z,89.34
2022-12-22T14:24:44.629Z,89.44
2022-12-22T14:25:51.569Z,89.37
2022-12-22T14:26:58.255Z,89.38
2022-12-22T14:28:07.207Z,89.36
2022-12-22T14:29:23.151Z,89.47
2022-12-22T14:30:41.745Z,89.46
2022-12-22T14:32:03.183Z,89.14
2022-12-22T14:33:28.988Z,89.23
2022-12-22T14:34:37.439Z,89.11
2022-12-22T14:35:41.665Z,89.35
2022-12-22T14:36:54.063Z,89.55
2022-12-22T14:38:24.182Z,89.50
2022-12-22T14:39:32.968Z,89.24
2022-12-22T14:40:42.161Z,90.04
2022-12-22T14:41:58.781Z,90.29
2022-12-22T14:43:19.914Z,89.92
2022-12-22T14:44:44.029Z,90.22
2022-12-22T14:45:50.907Z,90.22
2022-12-22T14:47:20.199Z,90.21
2022-12-22T14:48:32.919Z,90.79
2022-12-22T14:50:00.189Z,90.68
2022-12-22T14:51:05.912Z,90.57
2022-12-22T14:52:39.522Z,90.77
2022-12-22T14:53:57.904Z,90.69
2022-12-22T14:55:06.473Z,90.85
2022-12-22T14:56:20.900Z,91.30
2022-12-22T14:57:35.097Z,91.26
2022-12-22T14:58:46.463Z,91.53
2022-12-22T15:00:23.481Z,91.36
2022-12-22T15:01:30.530Z,91.42
2022-12-22T15:02:40.741Z,91.33
2022-12-22T15:04:05.694Z,91.56
2022-12-22T15:05:29.590Z,91.41
2022-12-22T15:06:46.203Z,91.80
2022-12-22T15:08:05.484Z,91.93
2022-12-22T15:09:14.348Z,92.46
2022-12-22T15:10:18.873Z,92.42
2022-12-22T15:11:24.821Z,92.44
2022-12-22T15:12:28.485Z,92.81
2022-12-22T15:13:32.027Z,92.51
2022-12-22T15:14:39.070Z,92.69
2022-12-22T15:15:44.252Z,92.52
2022-12-22T15:16:48.259Z,92.72
2022-12-22T15:17:54.371Z,92.48
2022-12-22T15:18:59.206Z,92.80
2022-12-22T15:20:04.734Z,92.96
2022-12-22T15:21:24.512Z,93.24
2022-12-22T15:22:29.059Z,93.27
2022-12-22T15:23:39.515Z,93.18
2022-12-22T15:24:49.001Z,93.47
2022-12-22T15:25:54.210Z,93.08
2022-12-22T15:27:02.421Z,93.38
2022-12-22T15:28:10.389Z,93.10
2022-12-22T15:29:17.838Z,93.14
2022-12-22T15:30:28.842Z,93.38
2022-12-22T15:31:36.737Z,93.45
2022-12-22T15:32:46.500Z,93.25
2022-12-22T15:33:52.423Z,93.34
2022-12-22T15:34:56.994Z,93.15
2022-12-22T15:36:04.884Z,92.90
2022-12-22T15:37:13.487Z,92.70
2022-12-22T15:38:24.564Z,92.74
2022-12-22T15:39:33.903Z,92.62
2022-12-22T15:40:38.832Z,93.00
2022-12-22T15:41:45.780Z,92.76
2022-12-22T15:42:54.141Z,92.76
2022-12-22T15:43:59.643Z,92.83
2022-12-22T15:45:05.755Z,92.98
2022-12-22T15:46:18.163Z,93.49
2022-12-22T15:47:29.799Z,93.42
2022-12-22T15:48:40.221Z,93.33
2022-12-22T15:49:49.508Z,93.52
2022-12-22T15:50:57.008Z,93.42
2022-12-22T15:52:10.553Z,93.23
2022-12-22T15:53:21.427Z,93.44
2022-12-22T15:54:33.331Z,93.55
2022-12-22T15:55:45.914Z,93.57
2022-12-22T15:56:54.341Z,93.59
2022-12-22T15:58:01.156Z,93.05
2022-12-22T15:59:05.307Z,93.08
2022-12-22T16:00:16.629Z,93.23
2022-12-22T16:01:25.435Z,93.39
2022-12-22T16:02:34.612Z,93.25
2022-12-22T16:03:39.473Z,93.25
2022-12-22T16:04:48.880Z,93.58
2022-12-22T16:05:58.144Z,93.53
2022-12-22T16:08:40.358Z,93.35
2022-12-22T16:09:52.125Z,93.22
2022-12-22T16:10:58.920Z,93.25
2022-12-22T16:12:20.570Z,93.55
2022-12-22T16:13:31.731Z,93.50
2022-12-22T16:14:43.684Z,93.50
2022-12-22T16:15:58.678Z,93.44
2022-12-22T16:17:28.907Z,93.28
2022-12-22T16:18:36.745Z,93.35
2022-12-22T16:19:46.185Z,93.75